Colman, South Dakota
Current Conditions -  °F | °C
As of 4:55 PM on Thursday 20 Nov 2014 (Local Time) from KMDS Reporting Station
Clear Clear  
Wind Chill: -18°   Ceiling: Unl
Heat Index: -12°   Visibility: 10mi
Dew Point: -14°   Wind: 7mph
Humidity: 85%   Direction: 10°N
Pressure: 30.14"   Gusts: NA
Location:  43.98°N, 96.81°W
Report Text: KMDS 202255Z AUTO 01006KT 10SM CLR M12/M14 A3014 RMK AO2
Loading
Personal Weather Stations






























Interactive Weather Map New forecast layout! Learn more

10-Day Weather Forecast

Advertisements
Track Severe Weather on mobile